sensor_id;sensor_type;location;lat;lon;timestamp;P1;durP1;ratioP1;P2;durP2;ratioP2
40248;SDS011;25969;49.970;11.062;2023-07-29T04:01:21;4.45;;;3.67;;
40248;SDS011;25969;49.970;11.062;2023-07-29T04:11:22;7.03;;;3.30;;
40248;SDS011;25969;49.970;11.062;2023-07-29T04:21:23;5.65;;;3.30;;
40248;SDS011;25969;49.970;11.062;2023-07-29T04:41:26;3.05;;;1.75;;
40248;SDS011;25969;49.970;11.062;2023-07-29T04:51:26;4.35;;;2.30;;
40248;SDS011;25969;49.970;11.062;2023-07-29T05:01:27;5.63;;;2.35;;
40248;SDS011;25969;49.970;11.062;2023-07-29T05:11:28;2.63;;;2.40;;
40248;SDS011;25969;49.970;11.062;2023-07-29T05:21:29;2.53;;;1.85;;
40248;SDS011;25969;49.970;11.062;2023-07-29T05:31:30;3.17;;;1.70;;
40248;SDS011;25969;49.970;11.062;2023-07-29T05:51:32;1.80;;;1.20;;
40248;SDS011;25969;49.970;11.062;2023-07-29T06:01:33;3.63;;;1.90;;
40248;SDS011;25969;49.970;11.062;2023-07-29T06:11:33;3.28;;;1.65;;
40248;SDS011;25969;49.970;11.062;2023-07-29T06:21:34;2.30;;;1.65;;
40248;SDS011;25969;49.970;11.062;2023-07-29T06:31:35;4.85;;;1.95;;
40248;SDS011;25969;49.970;11.062;2023-07-29T06:41:37;2.15;;;1.50;;
40248;SDS011;25969;49.970;11.062;2023-07-29T06:51:38;4.03;;;1.63;;
40248;SDS011;25969;49.970;11.062;2023-07-29T07:01:39;3.13;;;1.67;;
40248;SDS011;25969;49.970;11.062;2023-07-29T07:11:39;1.33;;;1.02;;
40248;SDS011;25969;49.970;11.062;2023-07-29T07:21:40;1.95;;;1.42;;
40248;SDS011;25969;49.970;11.062;2023-07-29T07:31:41;1.88;;;1.20;;
40248;SDS011;25969;49.970;11.062;2023-07-29T07:41:49;1.30;;;1.10;;
40248;SDS011;25969;49.970;11.062;2023-07-29T08:01:50;2.23;;;1.30;;
40248;SDS011;25969;49.970;11.062;2023-07-29T08:11:52;6.13;;;1.17;;
40248;SDS011;25969;49.970;11.062;2023-07-29T08:21:53;1.20;;;0.90;;
40248;SDS011;25969;49.970;11.062;2023-07-29T08:31:54;1.80;;;0.88;;
40248;SDS011;25969;49.970;11.062;2023-07-29T08:42:02;2.03;;;1.00;;
40248;SDS011;25969;49.970;11.062;2023-07-29T08:52:05;2.53;;;1.30;;
40248;SDS011;25969;49.970;11.062;2023-07-29T09:02:07;1.60;;;1.20;;
40248;SDS011;25969;49.970;11.062;2023-07-29T09:12:09;1.80;;;1.17;;
40248;SDS011;25969;49.970;11.062;2023-07-29T09:22:18;1.52;;;1.10;;
40248;SDS011;25969;49.970;11.062;2023-07-29T09:32:21;4.35;;;1.33;;
40248;SDS011;25969;49.970;11.062;2023-07-29T09:42:23;3.15;;;1.33;;
40248;SDS011;25969;49.970;11.062;2023-07-29T09:52:23;2.38;;;1.23;;
40248;SDS011;25969;49.970;11.062;2023-07-29T10:02:24;1.20;;;0.68;;
40248;SDS011;25969;49.970;11.062;2023-07-29T10:12:29;2.15;;;0.85;;
40248;SDS011;25969;49.970;11.062;2023-07-29T10:22:39;1.08;;;0.80;;
40248;SDS011;25969;49.970;11.062;2023-07-29T10:32:42;1.53;;;0.83;;
40248;SDS011;25969;49.970;11.062;2023-07-29T10:53:09;0.70;;;0.60;;
40248;SDS011;25969;49.970;11.062;2023-07-29T11:03:11;1.05;;;0.90;;
40248;SDS011;25969;49.970;11.062;2023-07-29T11:13:14;1.80;;;0.68;;
40248;SDS011;25969;49.970;11.062;2023-07-29T11:23:16;4.05;;;0.95;;
40248;SDS011;25969;49.970;11.062;2023-07-29T11:33:17;1.88;;;1.00;;
40248;SDS011;25969;49.970;11.062;2023-07-29T11:43:20;2.40;;;1.10;;
40248;SDS011;25969;49.970;11.062;2023-07-29T11:53:20;1.92;;;0.80;;
40248;SDS011;25969;49.970;11.062;2023-07-29T12:03:21;1.15;;;0.63;;
40248;SDS011;25969;49.970;11.062;2023-07-29T12:13:25;4.05;;;1.20;;
40248;SDS011;25969;49.970;11.062;2023-07-29T12:23:26;0.90;;;0.80;;
40248;SDS011;25969;49.970;11.062;2023-07-29T12:43:31;1.85;;;0.90;;
40248;SDS011;25969;49.970;11.062;2023-07-29T12:53:31;1.00;;;0.80;;
40248;SDS011;25969;49.970;11.062;2023-07-29T13:03:32;5.13;;;1.17;;
40248;SDS011;25969;49.970;11.062;2023-07-29T13:13:33;1.70;;;1.10;;
40248;SDS011;25969;49.970;11.062;2023-07-29T13:23:34;1.55;;;1.00;;
40248;SDS011;25969;49.970;11.062;2023-07-29T13:33:34;1.10;;;1.00;;
40248;SDS011;25969;49.970;11.062;2023-07-29T13:43:35;1.73;;;1.10;;
40248;SDS011;25969;49.970;11.062;2023-07-29T13:53:36;1.67;;;0.90;;
40248;SDS011;25969;49.970;11.062;2023-07-29T14:03:36;1.47;;;0.90;;
40248;SDS011;25969;49.970;11.062;2023-07-29T14:13:37;1.45;;;0.95;;
40248;SDS011;25969;49.970;11.062;2023-07-29T14:23:38;1.48;;;0.98;;
40248;SDS011;25969;49.970;11.062;2023-07-29T14:33:38;2.08;;;1.20;;
40248;SDS011;25969;49.970;11.062;2023-07-29T14:43:39;1.75;;;1.20;;
40248;SDS011;25969;49.970;11.062;2023-07-29T14:53:40;1.13;;;0.90;;
40248;SDS011;25969;49.970;11.062;2023-07-29T15:03:41;3.15;;;0.80;;
40248;SDS011;25969;49.970;11.062;2023-07-29T15:13:41;1.27;;;0.50;;
40248;SDS011;25969;49.970;11.062;2023-07-29T15:23:42;1.05;;;0.50;;
40248;SDS011;25969;49.970;11.062;2023-07-29T15:33:43;1.35;;;0.63;;
40248;SDS011;25969;49.970;11.062;2023-07-29T15:43:44;1.63;;;0.82;;
40248;SDS011;25969;49.970;11.062;2023-07-29T15:53:44;1.75;;;1.13;;
40248;SDS011;25969;49.970;11.062;2023-07-29T16:03:45;1.20;;;0.77;;
40248;SDS011;25969;49.970;11.062;2023-07-29T16:13:46;0.80;;;0.60;;
40248;SDS011;25969;49.970;11.062;2023-07-29T16:23:46;3.15;;;1.80;;
40248;SDS011;25969;49.970;11.062;2023-07-29T16:33:52;3.05;;;1.70;;
40248;SDS011;25969;49.970;11.062;2023-07-29T16:43:53;3.20;;;1.20;;
40248;SDS011;25969;49.970;11.062;2023-07-29T16:53:53;1.73;;;0.80;;
40248;SDS011;25969;49.970;11.062;2023-07-29T17:03:56;0.80;;;0.68;;
40248;SDS011;25969;49.970;11.062;2023-07-29T17:13:56;1.42;;;0.90;;
40248;SDS011;25969;49.970;11.062;2023-07-29T17:23:57;2.85;;;0.98;;
40248;SDS011;25969;49.970;11.062;2023-07-29T17:33:58;1.65;;;0.73;;
40248;SDS011;25969;49.970;11.062;2023-07-29T17:44:00;1.98;;;1.08;;
40248;SDS011;25969;49.970;11.062;2023-07-29T17:54:00;1.63;;;1.00;;
40248;SDS011;25969;49.970;11.062;2023-07-29T18:04:01;3.67;;;0.73;;
40248;SDS011;25969;49.970;11.062;2023-07-29T18:14:02;3.45;;;0.98;;
40248;SDS011;25969;49.970;11.062;2023-07-29T18:24:02;1.33;;;1.15;;
40248;SDS011;25969;49.970;11.062;2023-07-29T18:34:03;4.47;;;1.20;;
40248;SDS011;25969;49.970;11.062;2023-07-29T18:44:04;3.55;;;1.38;;
40248;SDS011;25969;49.970;11.062;2023-07-29T18:54:06;1.50;;;0.90;;
40248;SDS011;25969;49.970;11.062;2023-07-29T19:04:06;3.05;;;1.00;;
40248;SDS011;25969;49.970;11.062;2023-07-29T19:14:08;1.33;;;1.10;;
40248;SDS011;25969;49.970;11.062;2023-07-29T19:24:08;1.55;;;0.85;;
40248;SDS011;25969;49.970;11.062;2023-07-29T19:34:09;2.75;;;1.20;;
40248;SDS011;25969;49.970;11.062;2023-07-29T19:54:11;3.33;;;2.00;;
40248;SDS011;25969;49.970;11.062;2023-07-29T20:14:12;2.40;;;1.30;;
40248;SDS011;25969;49.970;11.062;2023-07-29T20:24:13;2.03;;;1.38;;
40248;SDS011;25969;49.970;11.062;2023-07-29T20:34:14;1.80;;;1.43;;
40248;SDS011;25969;49.970;11.062;2023-07-29T20:44:14;4.47;;;1.10;;
40248;SDS011;25969;49.970;11.062;2023-07-29T20:54:15;2.20;;;1.60;;
40248;SDS011;25969;49.970;11.062;2023-07-29T21:04:16;4.70;;;1.57;;
40248;SDS011;25969;49.970;11.062;2023-07-29T21:14:16;2.00;;;1.37;;
40248;SDS011;25969;49.970;11.062;2023-07-29T21:24:17;3.10;;;1.95;;
40248;SDS011;25969;49.970;11.062;2023-07-29T21:34:18;1.83;;;1.50;;
40248;SDS011;25969;49.970;11.062;2023-07-29T21:44:19;3.07;;;1.30;;
